SAS86N EKCH-LIRQ
Flight info
| Callsign | SAS86N |
|---|---|
| Flight time | 1h 53m |
| Altitude | 37000 |
| Route | NEXEN T503 GIMRU DCT MICOS DCT NEBUN DCT EMBOX DCT EXITI DCT BERAS DCT LIKDA DCT BAKOR DCT GOXIN/N0381F190 Q58 BIKTU |
| Aircraft | A319/M-SDE3FGHIRWY/LB1 |
Departure
| Time | 2026-04-25 13:46 |
|---|---|
| Airport | Copenhagen Kastrup Airport (EKCH) |
Arrival
| Time | 2026-04-25 15:39 |
|---|---|
| Airport | Florence Airport, Peretola (LIRQ) |
| Time | Latitude | Longitude | Altitude | Speed | Heading |
|---|---|---|---|---|---|
| 2026-04-25 13:15 | 55.62565 | 12.64510 | 24 ft | 0 kts | 16° |
| 2026-04-25 13:36 | 55.62544 | 12.64500 | 25 ft | 4 kts | 16° |
| 2026-04-25 13:37 | 55.62524 | 12.64489 | 27 ft | 4 kts | 14° |
| 2026-04-25 13:37 | 55.62499 | 12.64485 | 27 ft | 4 kts | 326° |
| 2026-04-25 13:37 | 55.62484 | 12.64516 | 27 ft | 3 kts | 303° |
| 2026-04-25 13:37 | 55.62482 | 12.64521 | 24 ft | 0 kts | 303° |
| 2026-04-25 13:42 | 55.62475 | 12.64508 | 26 ft | 3 kts | 226° |
| 2026-04-25 13:42 | 55.62446 | 12.64472 | 24 ft | 7 kts | 202° |
| 2026-04-25 13:42 | 55.62391 | 12.64448 | 24 ft | 9 kts | 194° |
| 2026-04-25 13:43 | 55.62313 | 12.64411 | 23 ft | 15 kts | 195° |
| 2026-04-25 13:43 | 55.62198 | 12.64342 | 22 ft | 19 kts | 205° |
| 2026-04-25 13:43 | 55.62073 | 12.64236 | 24 ft | 21 kts | 206° |
| 2026-04-25 13:43 | 55.61930 | 12.64116 | 24 ft | 24 kts | 204° |
| 2026-04-25 13:44 | 55.61815 | 12.64073 | 24 ft | 13 kts | 177° |
| 2026-04-25 13:44 | 55.61759 | 12.64080 | 24 ft | 0 kts | 176° |
| 2026-04-25 13:44 | 55.61755 | 12.64080 | 24 ft | 2 kts | 176° |
| 2026-04-25 13:44 | 55.61718 | 12.64085 | 25 ft | 8 kts | 176° |
| 2026-04-25 13:45 | 55.61649 | 12.64084 | 27 ft | 10 kts | 194° |
| 2026-04-25 13:45 | 55.61571 | 12.63986 | 28 ft | 21 kts | 221° |
| 2026-04-25 13:45 | 55.61314 | 12.63586 | 26 ft | 79 kts | 221° |
| 2026-04-25 13:45 | 55.60772 | 12.62739 | 26 ft | 130 kts | 221° |
| 2026-04-25 13:46 | 55.59983 | 12.61524 | 202 ft | 156 kts | 226° |
| 2026-04-25 13:46 | 55.59149 | 12.60245 | 757 ft | 162 kts | 230° |
| 2026-04-25 13:46 | 55.58293 | 12.58915 | 1434 ft | 165 kts | 231° |
| 2026-04-25 13:46 | 55.57410 | 12.57556 | 1959 ft | 175 kts | 231° |
| 2026-04-25 13:47 | 55.56409 | 12.56070 | 2222 ft | 203 kts | 226° |
| 2026-04-25 13:47 | 55.55197 | 12.54502 | 2628 ft | 229 kts | 224° |
| 2026-04-25 13:47 | 55.53830 | 12.52816 | 3253 ft | 247 kts | 223° |
| 2026-04-25 13:47 | 55.52396 | 12.51084 | 4180 ft | 252 kts | 222° |
| 2026-04-25 13:48 | 55.50931 | 12.49327 | 5142 ft | 257 kts | 223° |
| 2026-04-25 13:48 | 55.49442 | 12.47538 | 6058 ft | 262 kts | 223° |
| 2026-04-25 13:48 | 55.48004 | 12.45803 | 6878 ft | 266 kts | 223° |
| 2026-04-25 13:48 | 55.46468 | 12.43950 | 7785 ft | 269 kts | 224° |
| 2026-04-25 13:49 | 55.44921 | 12.42075 | 8736 ft | 270 kts | 225° |
| 2026-04-25 13:49 | 55.43367 | 12.40188 | 9660 ft | 273 kts | 225° |
| 2026-04-25 13:49 | 55.41783 | 12.38259 | 10250 ft | 286 kts | 225° |
| 2026-04-25 13:49 | 55.40090 | 12.36165 | 10489 ft | 309 kts | 225° |
| 2026-04-25 13:50 | 55.38284 | 12.33932 | 10954 ft | 322 kts | 224° |
| 2026-04-25 13:50 | 55.36426 | 12.31667 | 11641 ft | 328 kts | 224° |
| 2026-04-25 13:50 | 55.34537 | 12.29386 | 12361 ft | 332 kts | 224° |
| 2026-04-25 13:50 | 55.32618 | 12.27080 | 13076 ft | 336 kts | 224° |
| 2026-04-25 13:51 | 55.30683 | 12.24757 | 13764 ft | 339 kts | 225° |
| 2026-04-25 13:51 | 55.28730 | 12.22402 | 14405 ft | 342 kts | 225° |
| 2026-04-25 13:51 | 55.26759 | 12.20024 | 15038 ft | 345 kts | 225° |
| 2026-04-25 13:51 | 55.24772 | 12.17631 | 15670 ft | 348 kts | 225° |
| 2026-04-25 13:52 | 55.22767 | 12.15221 | 16300 ft | 351 kts | 225° |
| 2026-04-25 13:52 | 55.20746 | 12.12791 | 16934 ft | 354 kts | 225° |
| 2026-04-25 13:52 | 55.18725 | 12.10323 | 17555 ft | 355 kts | 226° |
| 2026-04-25 13:52 | 55.16719 | 12.07778 | 18178 ft | 358 kts | 227° |
| 2026-04-25 13:53 | 55.14708 | 12.05181 | 18724 ft | 360 kts | 227° |
| 2026-04-25 13:53 | 55.12692 | 12.02563 | 19274 ft | 363 kts | 228° |
| 2026-04-25 13:53 | 55.10656 | 11.99922 | 19816 ft | 366 kts | 228° |
| 2026-04-25 13:53 | 55.08602 | 11.97271 | 20360 ft | 369 kts | 227° |
| 2026-04-25 13:54 | 55.06523 | 11.94609 | 20901 ft | 372 kts | 227° |
| 2026-04-25 13:54 | 55.04423 | 11.91939 | 21442 ft | 375 kts | 227° |
| 2026-04-25 13:54 | 55.02299 | 11.89253 | 21956 ft | 378 kts | 227° |
| 2026-04-25 13:54 | 55.00160 | 11.86551 | 22453 ft | 381 kts | 227° |
| 2026-04-25 13:55 | 54.98002 | 11.83825 | 22941 ft | 384 kts | 227° |
| 2026-04-25 13:55 | 54.95837 | 11.81087 | 23412 ft | 387 kts | 227° |
| 2026-04-25 13:55 | 54.93650 | 11.78319 | 23815 ft | 390 kts | 227° |
| 2026-04-25 13:55 | 54.91448 | 11.75539 | 24202 ft | 393 kts | 227° |
| 2026-04-25 13:56 | 54.89229 | 11.72741 | 24594 ft | 395 kts | 227° |
| 2026-04-25 13:56 | 54.86995 | 11.69932 | 24974 ft | 398 kts | 227° |
| 2026-04-25 13:56 | 54.84741 | 11.67100 | 25355 ft | 401 kts | 227° |
| 2026-04-25 13:56 | 54.82471 | 11.64254 | 25731 ft | 404 kts | 226° |
| 2026-04-25 13:57 | 54.80187 | 11.61400 | 26102 ft | 406 kts | 226° |
| 2026-04-25 13:57 | 54.78668 | 11.59502 | 26358 ft | 408 kts | 226° |
| 2026-04-25 13:57 | 54.75573 | 11.55634 | 26847 ft | 412 kts | 226° |
| 2026-04-25 13:57 | 54.73240 | 11.52717 | 27210 ft | 415 kts | 226° |
| 2026-04-25 13:58 | 54.70895 | 11.49792 | 27565 ft | 417 kts | 226° |
| 2026-04-25 13:58 | 54.68531 | 11.46849 | 27911 ft | 420 kts | 226° |
| 2026-04-25 13:58 | 54.66146 | 11.43888 | 28251 ft | 423 kts | 226° |
| 2026-04-25 13:58 | 54.63748 | 11.40912 | 28604 ft | 426 kts | 226° |
| 2026-04-25 13:59 | 54.61333 | 11.37924 | 28927 ft | 429 kts | 226° |
| 2026-04-25 13:59 | 54.58894 | 11.34917 | 29244 ft | 432 kts | 226° |
| 2026-04-25 13:59 | 54.56445 | 11.31902 | 29549 ft | 435 kts | 225° |
| 2026-04-25 13:59 | 54.53972 | 11.28865 | 29867 ft | 437 kts | 225° |
| 2026-04-25 14:00 | 54.53169 | 11.27883 | 29961 ft | 438 kts | 225° |
| 2026-04-25 14:00 | 54.48970 | 11.22775 | 30390 ft | 443 kts | 225° |
| 2026-04-25 14:00 | 54.46449 | 11.19716 | 30638 ft | 446 kts | 225° |
| 2026-04-25 14:00 | 54.43911 | 11.16641 | 30905 ft | 447 kts | 225° |
| 2026-04-25 14:01 | 54.41359 | 11.13563 | 31261 ft | 447 kts | 224° |
| 2026-04-25 14:01 | 54.39009 | 11.10732 | 31587 ft | 447 kts | 224° |
| 2026-04-25 14:01 | 54.36385 | 11.07569 | 31956 ft | 447 kts | 224° |
| 2026-04-25 14:01 | 54.33709 | 11.04769 | 32303 ft | 458 kts | 215° |
| 2026-04-25 14:02 | 54.30749 | 11.02769 | 32654 ft | 470 kts | 204° |
| 2026-04-25 14:02 | 54.27455 | 11.01671 | 33014 ft | 483 kts | 193° |
| 2026-04-25 14:02 | 54.24063 | 11.01655 | 33375 ft | 494 kts | 181° |
| 2026-04-25 14:02 | 54.22951 | 11.01847 | 33493 ft | 495 kts | 180° |
| 2026-04-25 14:03 | 54.17223 | 11.02880 | 34112 ft | 494 kts | 180° |
| 2026-04-25 14:03 | 54.13807 | 11.03487 | 34444 ft | 493 kts | 180° |
| 2026-04-25 14:03 | 54.10437 | 11.04078 | 34772 ft | 492 kts | 180° |
| 2026-04-25 14:04 | 54.04025 | 11.05182 | 35375 ft | 492 kts | 180° |
| 2026-04-25 14:04 | 54.00624 | 11.05763 | 35674 ft | 491 kts | 180° |
| 2026-04-25 14:04 | 53.97225 | 11.06344 | 35980 ft | 491 kts | 180° |
| 2026-04-25 14:04 | 53.93822 | 11.06928 | 36267 ft | 491 kts | 180° |
| 2026-04-25 14:05 | 53.90427 | 11.07515 | 36539 ft | 491 kts | 180° |
| 2026-04-25 14:05 | 53.87032 | 11.08106 | 36816 ft | 490 kts | 180° |
| 2026-04-25 14:05 | 53.83633 | 11.08693 | 36988 ft | 491 kts | 180° |
| 2026-04-25 14:06 | 53.76856 | 11.09856 | 37022 ft | 489 kts | 180° |
| 2026-04-25 14:06 | 53.70094 | 11.11030 | 37021 ft | 488 kts | 179° |
| 2026-04-25 14:07 | 53.63339 | 11.12195 | 37018 ft | 487 kts | 179° |
| 2026-04-25 14:07 | 53.56602 | 11.13335 | 37019 ft | 486 kts | 179° |
| 2026-04-25 14:08 | 53.49879 | 11.14464 | 37020 ft | 485 kts | 179° |
| 2026-04-25 14:08 | 53.43161 | 11.15610 | 37022 ft | 485 kts | 179° |
| 2026-04-25 14:09 | 53.36451 | 11.16743 | 37018 ft | 484 kts | 179° |
| 2026-04-25 14:09 | 53.29797 | 11.17859 | 37030 ft | 483 kts | 179° |
| 2026-04-25 14:10 | 53.23110 | 11.18964 | 37030 ft | 482 kts | 179° |
| 2026-04-25 14:10 | 53.16432 | 11.20077 | 37035 ft | 482 kts | 179° |
| 2026-04-25 14:11 | 53.09764 | 11.21193 | 37033 ft | 481 kts | 179° |
| 2026-04-25 14:11 | 53.03084 | 11.22269 | 37026 ft | 480 kts | 180° |
| 2026-04-25 14:12 | 52.96463 | 11.23147 | 37031 ft | 479 kts | 180° |
| 2026-04-25 14:12 | 52.89817 | 11.23974 | 37027 ft | 478 kts | 180° |
| 2026-04-25 14:13 | 52.83183 | 11.24840 | 37041 ft | 478 kts | 180° |
| 2026-04-25 14:13 | 52.76558 | 11.25733 | 37026 ft | 478 kts | 180° |
| 2026-04-25 14:14 | 52.69939 | 11.26617 | 37027 ft | 477 kts | 180° |
| 2026-04-25 14:14 | 52.63331 | 11.27485 | 37029 ft | 476 kts | 180° |
| 2026-04-25 14:15 | 52.56725 | 11.28350 | 37032 ft | 476 kts | 180° |
| 2026-04-25 14:15 | 52.50125 | 11.29215 | 37033 ft | 475 kts | 180° |
| 2026-04-25 14:16 | 52.43531 | 11.30073 | 37033 ft | 475 kts | 180° |
| 2026-04-25 14:16 | 52.36943 | 11.30928 | 37040 ft | 475 kts | 180° |
| 2026-04-25 14:17 | 52.30360 | 11.31786 | 37035 ft | 474 kts | 180° |
| 2026-04-25 14:17 | 52.23780 | 11.32640 | 37035 ft | 474 kts | 180° |
| 2026-04-25 14:18 | 52.17203 | 11.33490 | 37035 ft | 474 kts | 180° |
| 2026-04-25 14:18 | 52.10626 | 11.34329 | 37035 ft | 474 kts | 180° |
| 2026-04-25 14:19 | 52.04054 | 11.35124 | 37038 ft | 473 kts | 182° |
| 2026-04-25 14:19 | 51.97541 | 11.35401 | 37045 ft | 470 kts | 185° |
| 2026-04-25 14:20 | 51.91001 | 11.35398 | 37045 ft | 470 kts | 185° |
| 2026-04-25 14:20 | 51.84457 | 11.35455 | 37043 ft | 470 kts | 184° |
| 2026-04-25 14:21 | 51.77918 | 11.35612 | 37045 ft | 470 kts | 184° |
| 2026-04-25 14:21 | 51.71373 | 11.35792 | 37049 ft | 470 kts | 184° |
| 2026-04-25 14:22 | 51.64841 | 11.35957 | 37040 ft | 469 kts | 184° |
| 2026-04-25 14:22 | 51.58312 | 11.36106 | 37042 ft | 469 kts | 184° |
| 2026-04-25 14:23 | 51.51788 | 11.36263 | 37043 ft | 469 kts | 184° |
| 2026-04-25 14:23 | 51.45273 | 11.36424 | 37048 ft | 468 kts | 184° |
| 2026-04-25 14:24 | 51.38759 | 11.36573 | 37048 ft | 468 kts | 184° |
| 2026-04-25 14:24 | 51.32257 | 11.36718 | 37046 ft | 467 kts | 184° |
| 2026-04-25 14:25 | 51.25758 | 11.36870 | 37049 ft | 467 kts | 184° |
| 2026-04-25 14:25 | 51.19264 | 11.37026 | 37054 ft | 467 kts | 184° |
| 2026-04-25 14:26 | 51.12779 | 11.37185 | 37059 ft | 466 kts | 184° |
| 2026-04-25 14:26 | 51.06294 | 11.37327 | 37058 ft | 466 kts | 184° |
| 2026-04-25 14:27 | 50.99812 | 11.37477 | 37061 ft | 465 kts | 184° |
| 2026-04-25 14:27 | 50.93336 | 11.37630 | 37057 ft | 465 kts | 184° |
| 2026-04-25 14:28 | 50.86862 | 11.37776 | 37059 ft | 465 kts | 184° |
| 2026-04-25 14:28 | 50.80393 | 11.37935 | 37054 ft | 465 kts | 183° |
| 2026-04-25 14:29 | 50.73923 | 11.38088 | 37052 ft | 465 kts | 184° |
| 2026-04-25 14:29 | 50.67446 | 11.38226 | 37054 ft | 465 kts | 183° |
| 2026-04-25 14:30 | 50.60982 | 11.38367 | 37053 ft | 465 kts | 183° |
| 2026-04-25 14:30 | 50.51290 | 11.38602 | 37052 ft | 464 kts | 183° |
| 2026-04-25 14:31 | 50.44841 | 11.38751 | 37055 ft | 464 kts | 183° |
| 2026-04-25 14:31 | 50.38390 | 11.38896 | 37048 ft | 463 kts | 183° |
| 2026-04-25 14:32 | 50.33037 | 11.39019 | 37059 ft | 463 kts | 183° |
| 2026-04-25 14:32 | 50.26602 | 11.39158 | 37057 ft | 462 kts | 183° |
| 2026-04-25 14:33 | 50.20177 | 11.39291 | 37056 ft | 462 kts | 183° |
| 2026-04-25 14:33 | 50.13752 | 11.39451 | 37063 ft | 461 kts | 183° |
| 2026-04-25 14:34 | 50.07338 | 11.39604 | 37061 ft | 461 kts | 183° |
| 2026-04-25 14:34 | 50.00932 | 11.39736 | 37063 ft | 460 kts | 183° |
| 2026-04-25 14:35 | 49.94538 | 11.39865 | 37063 ft | 460 kts | 183° |
| 2026-04-25 14:35 | 49.88144 | 11.40007 | 37061 ft | 459 kts | 183° |
| 2026-04-25 14:36 | 49.81753 | 11.40163 | 37062 ft | 459 kts | 183° |
| 2026-04-25 14:36 | 49.75375 | 11.40304 | 37061 ft | 459 kts | 183° |
| 2026-04-25 14:37 | 49.68990 | 11.40442 | 37062 ft | 459 kts | 183° |
| 2026-04-25 14:37 | 49.62607 | 11.40583 | 37062 ft | 459 kts | 183° |
| 2026-04-25 14:38 | 49.56226 | 11.40762 | 37063 ft | 460 kts | 179° |
| 2026-04-25 14:38 | 49.49851 | 11.41813 | 37065 ft | 461 kts | 177° |
| 2026-04-25 14:39 | 49.43476 | 11.42902 | 37066 ft | 461 kts | 177° |
| 2026-04-25 14:39 | 49.37099 | 11.44003 | 37064 ft | 461 kts | 177° |
| 2026-04-25 14:40 | 49.30729 | 11.45089 | 37060 ft | 461 kts | 177° |
| 2026-04-25 14:40 | 49.24353 | 11.46169 | 37063 ft | 461 kts | 177° |
| 2026-04-25 14:41 | 49.17985 | 11.47249 | 37061 ft | 461 kts | 177° |
| 2026-04-25 14:41 | 49.11654 | 11.48312 | 37059 ft | 460 kts | 177° |
| 2026-04-25 14:42 | 49.06316 | 11.49205 | 37059 ft | 460 kts | 177° |
| 2026-04-25 14:42 | 48.98918 | 11.50454 | 37055 ft | 460 kts | 177° |
| 2026-04-25 14:43 | 48.92549 | 11.51525 | 37053 ft | 460 kts | 177° |
| 2026-04-25 14:43 | 48.86184 | 11.52583 | 37050 ft | 460 kts | 177° |
| 2026-04-25 14:44 | 48.79818 | 11.53645 | 37049 ft | 460 kts | 176° |
| 2026-04-25 14:44 | 48.73463 | 11.54707 | 37051 ft | 459 kts | 176° |
| 2026-04-25 14:45 | 48.67110 | 11.55754 | 37056 ft | 459 kts | 176° |
| 2026-04-25 14:45 | 48.60765 | 11.56801 | 37059 ft | 458 kts | 176° |
| 2026-04-25 14:46 | 48.54427 | 11.57852 | 37068 ft | 458 kts | 176° |
| 2026-04-25 14:46 | 48.48096 | 11.58907 | 37086 ft | 457 kts | 176° |
| 2026-04-25 14:47 | 48.42838 | 11.59775 | 37086 ft | 457 kts | 176° |
| 2026-04-25 14:47 | 48.35461 | 11.60981 | 37091 ft | 456 kts | 176° |
| 2026-04-25 14:48 | 48.29154 | 11.62008 | 37089 ft | 455 kts | 176° |
| 2026-04-25 14:48 | 48.22860 | 11.63035 | 37086 ft | 455 kts | 176° |
| 2026-04-25 14:49 | 48.16624 | 11.64056 | 37083 ft | 454 kts | 176° |
| 2026-04-25 14:49 | 48.10349 | 11.65074 | 37088 ft | 453 kts | 177° |
| 2026-04-25 14:50 | 48.04084 | 11.66084 | 37084 ft | 452 kts | 177° |
| 2026-04-25 14:50 | 47.97833 | 11.67092 | 37069 ft | 451 kts | 177° |
| 2026-04-25 14:51 | 47.91591 | 11.68099 | 37067 ft | 451 kts | 177° |
| 2026-04-25 14:51 | 47.85364 | 11.69097 | 37053 ft | 450 kts | 177° |
| 2026-04-25 14:52 | 47.79146 | 11.70083 | 37052 ft | 449 kts | 177° |
| 2026-04-25 14:52 | 47.73987 | 11.70909 | 37052 ft | 448 kts | 177° |
| 2026-04-25 14:53 | 47.66743 | 11.72076 | 37046 ft | 448 kts | 178° |
| 2026-04-25 14:53 | 47.60556 | 11.73060 | 37051 ft | 447 kts | 178° |
| 2026-04-25 14:54 | 47.54381 | 11.74039 | 37040 ft | 446 kts | 178° |
| 2026-04-25 14:54 | 47.48219 | 11.75012 | 37034 ft | 445 kts | 178° |
| 2026-04-25 14:55 | 47.42071 | 11.75987 | 37030 ft | 444 kts | 178° |
| 2026-04-25 14:55 | 47.35921 | 11.76887 | 37032 ft | 442 kts | 182° |
| 2026-04-25 14:56 | 47.29817 | 11.76619 | 37030 ft | 439 kts | 186° |
| 2026-04-25 14:56 | 47.23721 | 11.76269 | 37028 ft | 438 kts | 186° |
| 2026-04-25 14:57 | 47.17640 | 11.75946 | 37027 ft | 438 kts | 186° |
| 2026-04-25 14:57 | 47.11551 | 11.75623 | 37021 ft | 437 kts | 186° |
| 2026-04-25 14:58 | 47.05476 | 11.75297 | 37012 ft | 437 kts | 186° |
| 2026-04-25 14:58 | 46.99394 | 11.74961 | 37004 ft | 437 kts | 186° |
| 2026-04-25 14:59 | 46.93315 | 11.74628 | 36998 ft | 437 kts | 186° |
| 2026-04-25 14:59 | 46.87232 | 11.74296 | 36997 ft | 438 kts | 186° |
| 2026-04-25 15:00 | 46.81339 | 11.73971 | 36997 ft | 437 kts | 186° |
| 2026-04-25 15:00 | 46.75268 | 11.73636 | 36992 ft | 437 kts | 186° |
| 2026-04-25 15:01 | 46.69244 | 11.73310 | 36981 ft | 436 kts | 186° |
| 2026-04-25 15:01 | 46.63179 | 11.72984 | 36969 ft | 436 kts | 186° |
| 2026-04-25 15:02 | 46.57121 | 11.72631 | 36969 ft | 435 kts | 187° |
| 2026-04-25 15:02 | 46.51075 | 11.72172 | 36965 ft | 435 kts | 188° |
| 2026-04-25 15:03 | 46.45081 | 11.71704 | 36961 ft | 434 kts | 187° |
| 2026-04-25 15:03 | 46.39101 | 11.71276 | 36960 ft | 434 kts | 187° |
| 2026-04-25 15:04 | 46.33151 | 11.70837 | 36966 ft | 434 kts | 187° |
| 2026-04-25 15:04 | 46.27119 | 11.70397 | 36980 ft | 434 kts | 187° |
| 2026-04-25 15:05 | 46.21087 | 11.69958 | 37004 ft | 434 kts | 187° |
| 2026-04-25 15:06 | 46.12033 | 11.69307 | 37023 ft | 434 kts | 187° |
| 2026-04-25 15:06 | 46.05998 | 11.68878 | 37037 ft | 434 kts | 187° |
| 2026-04-25 15:07 | 45.99958 | 11.68450 | 37037 ft | 434 kts | 187° |
| 2026-04-25 15:07 | 45.93922 | 11.68021 | 37045 ft | 434 kts | 187° |
| 2026-04-25 15:08 | 45.87889 | 11.67588 | 37048 ft | 434 kts | 187° |
| 2026-04-25 15:08 | 45.81891 | 11.67159 | 37033 ft | 434 kts | 187° |
| 2026-04-25 15:09 | 45.75850 | 11.66742 | 37020 ft | 434 kts | 187° |
| 2026-04-25 15:09 | 45.66796 | 11.66092 | 37001 ft | 434 kts | 187° |
| 2026-04-25 15:10 | 45.60772 | 11.65669 | 36987 ft | 434 kts | 187° |
| 2026-04-25 15:11 | 45.51716 | 11.65036 | 36987 ft | 434 kts | 187° |
| 2026-04-25 15:11 | 45.45680 | 11.64618 | 36992 ft | 434 kts | 187° |
| 2026-04-25 15:12 | 45.36633 | 11.63983 | 36994 ft | 434 kts | 187° |
| 2026-04-25 15:12 | 45.32597 | 11.63698 | 36992 ft | 434 kts | 187° |
| 2026-04-25 15:13 | 45.21551 | 11.62921 | 37012 ft | 434 kts | 187° |
| 2026-04-25 15:14 | 45.15525 | 11.62510 | 36813 ft | 435 kts | 187° |
| 2026-04-25 15:14 | 45.12492 | 11.62301 | 36551 ft | 435 kts | 187° |
| 2026-04-25 15:14 | 45.09464 | 11.62090 | 36053 ft | 436 kts | 187° |
| 2026-04-25 15:14 | 45.06403 | 11.61872 | 34922 ft | 444 kts | 187° |
| 2026-04-25 15:15 | 45.03315 | 11.61651 | 34125 ft | 444 kts | 186° |
| 2026-04-25 15:15 | 45.00251 | 11.61435 | 33169 ft | 450 kts | 186° |
| 2026-04-25 15:15 | 44.97073 | 11.61215 | 32301 ft | 453 kts | 186° |
| 2026-04-25 15:15 | 44.93961 | 11.61003 | 31673 ft | 451 kts | 186° |
| 2026-04-25 15:16 | 44.90852 | 11.60796 | 31167 ft | 446 kts | 186° |
| 2026-04-25 15:16 | 44.87765 | 11.60594 | 30603 ft | 442 kts | 186° |
| 2026-04-25 15:16 | 44.81664 | 11.60177 | 29446 ft | 435 kts | 186° |
| 2026-04-25 15:17 | 44.75692 | 11.59763 | 28356 ft | 425 kts | 186° |
| 2026-04-25 15:17 | 44.72754 | 11.59559 | 27814 ft | 420 kts | 186° |
| 2026-04-25 15:17 | 44.69849 | 11.59363 | 27278 ft | 416 kts | 186° |
| 2026-04-25 15:18 | 44.66964 | 11.59170 | 26753 ft | 412 kts | 186° |
| 2026-04-25 15:18 | 44.61289 | 11.58781 | 25732 ft | 404 kts | 186° |
| 2026-04-25 15:18 | 44.58492 | 11.58585 | 25236 ft | 401 kts | 186° |
| 2026-04-25 15:19 | 44.55716 | 11.58396 | 24761 ft | 398 kts | 186° |
| 2026-04-25 15:19 | 44.54784 | 11.58334 | 24602 ft | 397 kts | 186° |
| 2026-04-25 15:19 | 44.50224 | 11.58037 | 23838 ft | 392 kts | 186° |
| 2026-04-25 15:19 | 44.47511 | 11.57855 | 23364 ft | 390 kts | 186° |
| 2026-04-25 15:20 | 44.44813 | 11.57671 | 22919 ft | 386 kts | 186° |
| 2026-04-25 15:20 | 44.42148 | 11.57489 | 22482 ft | 381 kts | 186° |
| 2026-04-25 15:20 | 44.39516 | 11.57308 | 22055 ft | 377 kts | 186° |
| 2026-04-25 15:20 | 44.36915 | 11.57126 | 21620 ft | 373 kts | 186° |
| 2026-04-25 15:21 | 44.34338 | 11.56944 | 21192 ft | 369 kts | 186° |
| 2026-04-25 15:21 | 44.31793 | 11.56766 | 20748 ft | 365 kts | 186° |
| 2026-04-25 15:21 | 44.29264 | 11.56593 | 20306 ft | 362 kts | 186° |
| 2026-04-25 15:21 | 44.26761 | 11.56423 | 19851 ft | 359 kts | 186° |
| 2026-04-25 15:22 | 44.24275 | 11.56226 | 19384 ft | 357 kts | 187° |
| 2026-04-25 15:22 | 44.21806 | 11.55998 | 18914 ft | 356 kts | 187° |
| 2026-04-25 15:22 | 44.19340 | 11.55753 | 18431 ft | 354 kts | 187° |
| 2026-04-25 15:22 | 44.16891 | 11.55505 | 17893 ft | 352 kts | 187° |
| 2026-04-25 15:23 | 44.14461 | 11.55264 | 17412 ft | 349 kts | 187° |
| 2026-04-25 15:23 | 44.12053 | 11.55032 | 16930 ft | 345 kts | 187° |
| 2026-04-25 15:23 | 44.09669 | 11.54807 | 16453 ft | 343 kts | 187° |
| 2026-04-25 15:23 | 44.07291 | 11.54585 | 16067 ft | 339 kts | 187° |
| 2026-04-25 15:24 | 44.04983 | 11.54370 | 15926 ft | 326 kts | 187° |
| 2026-04-25 15:24 | 44.02746 | 11.54159 | 15647 ft | 320 kts | 187° |
| 2026-04-25 15:24 | 44.00585 | 11.53664 | 15388 ft | 311 kts | 200° |
| 2026-04-25 15:24 | 43.99892 | 11.53345 | 15303 ft | 309 kts | 204° |
| 2026-04-25 15:25 | 43.96804 | 11.50972 | 14879 ft | 305 kts | 215° |
| 2026-04-25 15:25 | 43.95001 | 11.49417 | 14499 ft | 305 kts | 214° |
| 2026-04-25 15:25 | 43.93193 | 11.47867 | 14077 ft | 307 kts | 214° |
| 2026-04-25 15:25 | 43.91372 | 11.46312 | 13648 ft | 308 kts | 214° |
| 2026-04-25 15:26 | 43.89553 | 11.44762 | 13219 ft | 306 kts | 214° |
| 2026-04-25 15:26 | 43.87752 | 11.43229 | 12802 ft | 304 kts | 214° |
| 2026-04-25 15:26 | 43.85956 | 11.41701 | 12433 ft | 302 kts | 214° |
| 2026-04-25 15:26 | 43.84180 | 11.40191 | 11978 ft | 298 kts | 213° |
| 2026-04-25 15:27 | 43.82417 | 11.38689 | 11562 ft | 298 kts | 213° |
| 2026-04-25 15:27 | 43.80653 | 11.37187 | 11176 ft | 296 kts | 214° |
| 2026-04-25 15:27 | 43.77171 | 11.34224 | 10357 ft | 295 kts | 213° |
| 2026-04-25 15:28 | 43.76029 | 11.33210 | 10083 ft | 295 kts | 218° |
| 2026-04-25 15:28 | 43.74545 | 11.31281 | 9655 ft | 291 kts | 230° |
| 2026-04-25 15:28 | 43.73225 | 11.29211 | 9253 ft | 282 kts | 230° |
| 2026-04-25 15:28 | 43.71942 | 11.27224 | 8874 ft | 273 kts | 230° |
| 2026-04-25 15:29 | 43.70694 | 11.25301 | 8501 ft | 265 kts | 230° |
| 2026-04-25 15:29 | 43.69478 | 11.23429 | 8128 ft | 259 kts | 230° |
| 2026-04-25 15:29 | 43.68286 | 11.21602 | 7777 ft | 253 kts | 230° |
| 2026-04-25 15:29 | 43.67124 | 11.19817 | 7434 ft | 246 kts | 230° |
| 2026-04-25 15:30 | 43.66372 | 11.18662 | 7217 ft | 242 kts | 230° |
| 2026-04-25 15:30 | 43.64896 | 11.16394 | 6794 ft | 232 kts | 231° |
| 2026-04-25 15:30 | 43.63838 | 11.14768 | 6464 ft | 223 kts | 230° |
| 2026-04-25 15:30 | 43.62818 | 11.13206 | 6165 ft | 216 kts | 231° |
| 2026-04-25 15:31 | 43.61842 | 11.11702 | 5977 ft | 203 kts | 231° |
| 2026-04-25 15:31 | 43.60926 | 11.10298 | 5779 ft | 191 kts | 231° |
| 2026-04-25 15:31 | 43.60049 | 11.08960 | 5472 ft | 186 kts | 231° |
| 2026-04-25 15:31 | 43.59146 | 11.07580 | 4835 ft | 200 kts | 231° |
| 2026-04-25 15:32 | 43.58207 | 11.06158 | 4365 ft | 202 kts | 231° |
| 2026-04-25 15:32 | 43.57269 | 11.04730 | 3944 ft | 200 kts | 231° |
| 2026-04-25 15:32 | 43.56440 | 11.03229 | 3588 ft | 192 kts | 248° |
| 2026-04-25 15:33 | 43.56516 | 10.99949 | 3260 ft | 173 kts | 297° |
| 2026-04-25 15:33 | 43.57354 | 10.98770 | 3136 ft | 178 kts | 322° |
| 2026-04-25 15:33 | 43.58559 | 10.98251 | 3055 ft | 188 kts | 351° |
| 2026-04-25 15:33 | 43.59862 | 10.98207 | 3025 ft | 187 kts | 354° |
| 2026-04-25 15:34 | 43.61165 | 10.98164 | 3024 ft | 187 kts | 354° |
| 2026-04-25 15:34 | 43.62472 | 10.98121 | 3024 ft | 189 kts | 353° |
| 2026-04-25 15:34 | 43.63785 | 10.98077 | 3021 ft | 188 kts | 353° |
| 2026-04-25 15:34 | 43.64649 | 10.98048 | 3028 ft | 188 kts | 353° |
| 2026-04-25 15:35 | 43.67480 | 10.99690 | 3031 ft | 205 kts | 45° |
| 2026-04-25 15:35 | 43.68418 | 11.01134 | 3022 ft | 205 kts | 44° |
| 2026-04-25 15:35 | 43.69370 | 11.02593 | 3021 ft | 204 kts | 45° |
| 2026-04-25 15:36 | 43.71266 | 11.05503 | 2821 ft | 203 kts | 45° |
| 2026-04-25 15:36 | 43.72210 | 11.06954 | 2567 ft | 203 kts | 46° |
| 2026-04-25 15:36 | 43.73140 | 11.08385 | 2300 ft | 196 kts | 46° |
| 2026-04-25 15:37 | 43.74030 | 11.09755 | 2059 ft | 188 kts | 45° |
| 2026-04-25 15:37 | 43.74889 | 11.11071 | 1786 ft | 180 kts | 45° |
| 2026-04-25 15:37 | 43.75674 | 11.12290 | 1619 ft | 163 kts | 46° |
| 2026-04-25 15:37 | 43.76399 | 11.13437 | 1370 ft | 152 kts | 47° |
| 2026-04-25 15:38 | 43.77098 | 11.14506 | 1166 ft | 150 kts | 45° |
| 2026-04-25 15:38 | 43.77786 | 11.15562 | 992 ft | 146 kts | 46° |
| 2026-04-25 15:38 | 43.78479 | 11.16609 | 801 ft | 148 kts | 46° |
| 2026-04-25 15:38 | 43.79169 | 11.17658 | 597 ft | 146 kts | 46° |
| 2026-04-25 15:39 | 43.79840 | 11.18720 | 389 ft | 149 kts | 49° |
| 2026-04-25 15:39 | 43.80539 | 11.19783 | 182 ft | 149 kts | 48° |
| 2026-04-25 15:39 | 43.81110 | 11.20670 | 129 ft | 64 kts | 48° |
| 2026-04-25 15:39 | 43.81269 | 11.20965 | 134 ft | 22 kts | 90° |
| 2026-04-25 15:40 | 43.81257 | 11.21165 | 141 ft | 15 kts | 92° |
| 2026-04-25 15:40 | 43.81278 | 11.21248 | 144 ft | 14 kts | 53° |
| 2026-04-25 15:40 | 43.81368 | 11.21376 | 145 ft | 15 kts | 29° |
| 2026-04-25 15:40 | 43.81479 | 11.21344 | 137 ft | 16 kts | 329° |
| 2026-04-25 15:41 | 43.81449 | 11.21195 | 132 ft | 21 kts | 228° |
| 2026-04-25 15:41 | 43.81343 | 11.21034 | 132 ft | 25 kts | 227° |
| 2026-04-25 15:41 | 43.81215 | 11.20836 | 129 ft | 31 kts | 230° |
| 2026-04-25 15:41 | 43.81058 | 11.20590 | 126 ft | 37 kts | 227° |
| 2026-04-25 15:42 | 43.80871 | 11.20302 | 126 ft | 41 kts | 228° |
| 2026-04-25 15:42 | 43.80699 | 11.20046 | 132 ft | 24 kts | 213° |
| 2026-04-25 15:42 | 43.80544 | 11.19989 | 133 ft | 11 kts | 195° |
| 2026-04-25 15:42 | 43.80522 | 11.19992 | 133 ft | 3 kts | 143° |
| 2026-04-25 15:43 | 43.80502 | 11.20023 | 133 ft | 6 kts | 136° |
| 2026-04-25 15:43 | 43.80443 | 11.20044 | 131 ft | 13 kts | 187° |
| 2026-04-25 15:43 | 43.80372 | 11.20031 | 129 ft | 7 kts | 187° |
| 2026-04-25 15:43 | 43.80341 | 11.20056 | 125 ft | 0 kts | 129° |
| 2026-04-25 15:44 | 43.80333 | 11.20070 | 125 ft | 4 kts | 129° |
| 2026-04-25 15:44 | 43.80322 | 11.20089 | 124 ft | 1 kts | 129° |
| 2026-04-25 15:44 | 43.80322 | 11.20090 | 124 ft | 0 kts | 129° |
| 2026-04-25 16:11 | 43.80331 | 11.20075 | 121 ft | 4 kts | 127° |
| 2026-04-25 16:11 | 43.80347 | 11.20046 | 122 ft | 4 kts | 139° |
| 2026-04-25 16:11 | 43.80366 | 11.20033 | 127 ft | 3 kts | 176° |
| 2026-04-25 16:11 | 43.80382 | 11.20034 | 128 ft | 2 kts | 188° |
| 2026-04-25 16:12 | 43.80384 | 11.20034 | 129 ft | 0 kts | 188° |
| 2026-04-25 16:15 | 43.80367 | 11.20025 | 128 ft | 5 kts | 212° |
| 2026-04-25 16:16 | 43.80357 | 11.19972 | 130 ft | 6 kts | 285° |